Time;durP1;ratioP1;P1;durP2;ratioP2;P2;SDS_P1;SDS_P2;PMS_P1;PMS_P2;Temp;Humidity;BMP_temperature;BMP_pressure;BME280_temperature;BME280_humidity;BME280_pressure;Samples;Min_cycle;Max_cycle;Signal;HPM_P1;HPM_P2
2021/03/10 00:00:34;;;;;;;11.68;2.38;;;24.00;99.90;;;;;;6318090;22;20120;-64
2021/03/10 00:03:01;;;;;;;9.27;2.85;;;24.60;99.90;;;;;;6313983;22;20372;-65
2021/03/10 00:05:29;;;;;;;9.63;1.80;;;25.30;99.90;;;;;;6314944;22;20027;-65
2021/03/10 00:07:56;;;;;;;11.20;2.75;;;25.20;99.90;;;;;;6319795;22;20075;-65
2021/03/10 00:10:23;;;;;;;10.82;2.60;;;25.00;99.90;;;;;;6323077;22;20023;-66
2021/03/10 00:12:51;;;;;;;10.90;2.13;;;25.30;99.90;;;;;;6326003;22;20026;-64
2021/03/10 00:15:18;;;;;;;6.57;1.63;;;25.50;99.90;;;;;;6329717;22;19999;-64
2021/03/10 00:17:45;;;;;;;9.52;2.10;;;25.40;99.90;;;;;;6354829;22;20042;-64
2021/03/10 00:20:16;;;;;;;11.50;1.92;;;24.80;99.90;;;;;;6329350;22;19995;-64
2021/03/10 00:22:43;;;;;;;13.05;1.77;;;24.30;99.90;;;;;;6351653;22;20151;-64
2021/03/10 00:25:11;;;;;;;16.75;2.90;;;24.00;99.90;;;;;;6322651;22;20024;-65
2021/03/10 00:27:39;;;;;;;10.32;2.38;;;24.00;99.90;;;;;;6319521;22;20086;-65
2021/03/10 00:30:09;;;;;;;13.60;2.42;;;24.30;99.90;;;;;;6313942;22;20092;-65
2021/03/10 00:32:38;;;;;;;17.10;3.55;;;24.30;99.90;;;;;;6315102;22;20014;-65
2021/03/10 00:35:07;;;;;;;11.63;2.25;;;24.40;99.90;;;;;;6318356;22;20054;-66
2021/03/10 00:37:34;;;;;;;6.32;1.42;;;24.10;99.90;;;;;;6313321;22;19999;-66
2021/03/10 00:40:02;;;;;;;10.13;1.67;;;24.10;99.90;;;;;;6344695;22;20060;-64
2021/03/10 00:42:29;;;;;;;8.77;1.92;;;23.80;99.90;;;;;;6319256;22;19995;-65
2021/03/10 00:44:56;;;;;;;9.48;1.83;;;23.70;99.90;;;;;;6314773;22;19999;-66
2021/03/10 00:47:23;;;;;;;14.05;2.17;;;23.70;99.90;;;;;;6313377;22;20006;-66
2021/03/10 00:49:51;;;;;;;7.50;1.85;;;23.80;99.90;;;;;;6312557;22;20023;-65
2021/03/10 00:52:18;;;;;;;9.32;1.90;;;23.60;99.90;;;;;;6312495;22;20011;-65
2021/03/10 00:54:45;;;;;;;11.70;2.63;;;23.40;99.90;;;;;;6311368;22;20453;-66
2021/03/10 00:57:13;;;;;;;10.48;1.83;;;23.60;99.90;;;;;;6311815;22;20329;-66
2021/03/10 00:59:40;;;;;;;11.65;2.38;;;23.70;99.90;;;;;;6310166;22;19999;-66
2021/03/10 01:02:07;;;;;;;6.70;1.77;;;23.60;99.90;;;;;;6336457;22;20007;-65
2021/03/10 01:04:34;;;;;;;13.18;2.47;;;23.70;99.90;;;;;;6311332;22;20006;-65
2021/03/10 01:07:02;;;;;;;12.18;1.85;;;24.00;99.90;;;;;;6310645;22;20029;-65
2021/03/10 01:09:29;;;;;;;10.98;2.25;;;23.80;99.90;;;;;;6311130;22;20041;-66
2021/03/10 01:11:56;;;;;;;10.82;3.13;;;23.90;99.90;;;;;;6312457;22;20004;-65
2021/03/10 01:14:23;;;;;;;12.70;2.40;;;24.00;99.90;;;;;;6311619;22;20366;-65
2021/03/10 01:16:51;;;;;;;14.43;3.25;;;24.00;99.90;;;;;;6317059;22;20025;-65
2021/03/10 01:19:18;;;;;;;11.98;2.65;;;23.90;99.90;;;;;;6315812;22;20015;-66
2021/03/10 01:21:46;;;;;;;19.20;2.78;;;23.80;99.90;;;;;;6311732;22;20074;-66
2021/03/10 01:24:13;;;;;;;9.25;2.22;;;23.70;99.90;;;;;;6317540;22;20086;-65
2021/03/10 01:26:41;;;;;;;7.25;2.03;;;24.20;99.90;;;;;;6312886;22;20368;-66
2021/03/10 01:29:08;;;;;;;10.02;2.22;;;24.40;99.90;;;;;;6310279;22;20018;-65
2021/03/10 01:31:35;;;;;;;8.70;2.15;;;24.70;99.90;;;;;;6308547;22;20003;-66
2021/03/10 01:34:02;;;;;;;11.32;3.10;;;25.00;99.90;;;;;;6329881;22;20007;-65
2021/03/10 01:36:30;;;;;;;8.63;2.50;;;25.20;99.90;;;;;;6306602;22;20076;-65
2021/03/10 01:38:57;;;;;;;9.60;2.10;;;25.50;99.90;;;;;;6303894;22;19999;-66
2021/03/10 01:41:24;;;;;;;6.07;1.58;;;25.80;99.90;;;;;;6309110;22;20007;-66
2021/03/10 01:43:52;;;;;;;9.13;2.45;;;25.50;99.90;;;;;;6305812;22;20007;-66
2021/03/10 01:46:20;;;;;;;6.38;1.80;;;26.20;99.90;;;;;;6307834;22;20011;-66
2021/03/10 01:48:47;;;;;;;9.18;1.50;;;25.90;99.90;;;;;;6323250;22;20019;-71
2021/03/10 01:51:15;;;;;;;8.10;2.08;;;25.40;99.90;;;;;;6336643;22;20440;-65
2021/03/10 01:53:42;;;;;;;7.45;1.55;;;25.20;99.90;;;;;;6340339;22;20074;-66
2021/03/10 01:56:09;;;;;;;7.97;1.88;;;24.50;99.90;;;;;;6339196;22;20006;-66
2021/03/10 01:58:37;;;;;;;12.45;2.30;;;25.00;99.90;;;;;;6338533;22;20002;-66
2021/03/10 02:01:05;;;;;;;12.13;2.20;;;25.60;99.90;;;;;;6340444;22;20031;-66
2021/03/10 02:03:32;;;;;;;8.95;2.22;;;26.60;99.90;;;;;;6339279;22;20006;-67
2021/03/10 02:06:00;;;;;;;7.93;1.75;;;26.70;99.90;;;;;;6339553;22;20447;-65
2021/03/10 02:08:52;;;;;;;9.35;1.50;;;27.40;99.90;;;;;;6345409;22;20013;-65
2021/03/10 02:11:36;;;;;;;12.32;2.45;;;27.10;99.90;;;;;;6344710;22;20088;-65
2021/03/10 02:14:28;;;;;;;9.60;2.47;;;26.50;99.90;;;;;;6345374;22;19999;-65
2021/03/10 02:17:00;;;;;;;10.23;2.00;;;26.50;99.90;;;;;;6344242;22;20017;-65
2021/03/10 02:19:45;;;;;;;11.18;2.45;;;26.70;99.90;;;;;;6346451;22;20003;-64
2021/03/10 02:22:36;;;;;;;10.68;2.88;;;26.50;99.90;;;;;;6350880;22;20006;-66
2021/03/10 02:25:35;;;;;;;13.38;2.25;;;26.50;99.90;;;;;;6336493;22;20076;-65
2021/03/10 02:28:04;;;;;;;9.52;1.65;;;26.30;99.90;;;;;;6339005;22;20027;-64
2021/03/10 02:30:40;;;;;;;10.27;2.30;;;26.50;99.90;;;;;;6321061;22;20063;-64
2021/03/10 02:33:37;;;;;;;10.63;2.05;;;27.00;99.90;;;;;;6325783;22;19999;-65
2021/03/10 02:36:15;;;;;;;11.52;2.30;;;26.80;99.90;;;;;;6309790;22;20003;-65
2021/03/10 02:38:50;;;;;;;12.63;2.85;;;26.50;99.90;;;;;;6325047;22;20058;-66
2021/03/10 02:41:19;;;;;;;16.48;2.70;;;26.90;99.90;;;;;;6329544;22;19999;-64
2021/03/10 02:43:48;;;;;;;11.30;2.05;;;26.70;99.90;;;;;;6329219;22;19999;-64
2021/03/10 02:46:17;;;;;;;16.65;2.25;;;27.10;99.90;;;;;;6325900;22;20071;-65
2021/03/10 02:48:45;;;;;;;9.63;2.00;;;27.60;99.90;;;;;;6327717;22;20034;-65
2021/03/10 02:51:16;;;;;;;7.78;2.03;;;27.40;99.90;;;;;;6353479;22;20022;-64
2021/03/10 02:53:45;;;;;;;11.82;1.88;;;26.80;99.90;;;;;;6322829;22;20006;-65
2021/03/10 02:56:13;;;;;;;10.52;2.90;;;26.90;99.90;;;;;;6326307;22;20000;-65
2021/03/10 02:58:42;;;;;;;11.88;2.13;;;26.50;99.90;;;;;;6325960;22;19999;-65
2021/03/10 03:01:10;;;;;;;14.30;2.28;;;26.60;99.90;;;;;;6323132;22;19995;-64
2021/03/10 03:03:38;;;;;;;11.95;2.03;;;26.50;99.90;;;;;;6323934;22;20011;-65
2021/03/10 03:06:06;;;;;;;9.52;2.53;;;25.60;99.90;;;;;;6325839;22;20006;-65
2021/03/10 03:08:34;;;;;;;13.00;2.75;;;25.60;99.90;;;;;;6329755;22;20050;-65
2021/03/10 03:11:03;;;;;;;7.78;2.53;;;25.40;99.90;;;;;;6320519;22;19995;-65
2021/03/10 03:13:32;;;;;;;11.73;2.22;;;25.70;99.90;;;;;;6325648;22;20010;-65
2021/03/10 03:16:04;;;;;;;13.25;2.08;;;26.00;99.90;;;;;;6319774;22;19999;-65
2021/03/10 03:18:32;;;;;;;10.55;2.38;;;26.20;99.90;;;;;;6322481;22;20005;-65
2021/03/10 03:21:02;;;;;;;8.48;2.88;;;26.20;99.90;;;;;;6319599;22;20094;-65
2021/03/10 03:23:31;;;;;;;14.43;2.88;;;26.50;99.90;;;;;;6321339;22;20260;-65
2021/03/10 03:25:58;;;;;;;14.90;2.72;;;26.40;99.90;;;;;;6325708;22;20072;-65
2021/03/10 03:28:29;;;;;;;11.20;2.15;;;25.90;99.90;;;;;;6320127;22;20007;-65
2021/03/10 03:30:57;;;;;;;10.90;2.25;;;25.60;99.90;;;;;;6316821;22;20006;-65
2021/03/10 03:33:29;;;;;;;11.32;2.85;;;25.40;99.90;;;;;;6320433;22;20341;-65
2021/03/10 03:35:58;;;;;;;7.90;1.63;;;25.20;99.90;;;;;;6314576;22;20094;-65
2021/03/10 03:38:28;;;;;;;11.05;2.28;;;25.50;99.90;;;;;;6320138;22;20011;-66
2021/03/10 03:40:56;;;;;;;13.48;2.40;;;25.60;99.90;;;;;;6320824;22;20007;-66
2021/03/10 03:43:28;;;;;;;12.93;3.22;;;24.80;99.90;;;;;;6325735;22;20027;-65
2021/03/10 03:45:56;;;;;;;12.15;2.08;;;24.50;99.90;;;;;;6321826;22;20014;-66
2021/03/10 03:48:23;;;;;;;14.15;2.22;;;24.90;99.90;;;;;;6316953;22;20011;-66
2021/03/10 03:50:51;;;;;;;16.48;2.40;;;25.10;99.90;;;;;;6320494;22;20058;-65
2021/03/10 03:53:18;;;;;;;9.73;2.13;;;25.00;99.90;;;;;;6320441;22;19999;-66
2021/03/10 03:55:45;;;;;;;10.88;1.80;;;25.10;99.90;;;;;;6320898;22;20441;-65
2021/03/10 03:58:13;;;;;;;11.52;2.72;;;25.50;99.90;;;;;;6312581;22;20002;-66
2021/03/10 04:00:40;;;;;;;10.75;1.88;;;25.30;99.90;;;;;;6314299;22;20005;-66
2021/03/10 04:03:08;;;;;;;9.48;1.80;;;25.10;99.90;;;;;;6314765;22;20000;-67
2021/03/10 04:05:35;;;;;;;10.77;2.00;;;25.40;99.90;;;;;;6312415;22;20078;-66
2021/03/10 04:08:02;;;;;;;9.85;1.70;;;25.70;99.90;;;;;;6312123;22;20029;-65
2021/03/10 04:10:33;;;;;;;12.07;2.53;;;25.90;99.90;;;;;;6315451;22;20006;-66
2021/03/10 04:13:01;;;;;;;13.05;2.15;;;25.50;99.90;;;;;;6314300;22;20003;-66
2021/03/10 04:15:32;;;;;;;9.13;1.63;;;25.40;99.90;;;;;;6312345;22;20007;-66
2021/03/10 04:18:00;;;;;;;9.05;1.80;;;25.20;99.90;;;;;;6314385;22;19999;-65
2021/03/10 04:20:27;;;;;;;10.43;1.90;;;25.40;99.90;;;;;;6314844;22;20006;-66
2021/03/10 04:22:55;;;;;;;12.80;2.58;;;25.50;99.90;;;;;;6315830;22;20372;-66
2021/03/10 04:25:22;;;;;;;10.10;2.75;;;25.00;99.90;;;;;;6315845;22;20329;-65
2021/03/10 04:27:50;;;;;;;14.13;2.25;;;25.10;99.90;;;;;;6315021;22;19995;-66
2021/03/10 04:30:17;;;;;;;9.43;2.45;;;24.80;99.90;;;;;;6308821;22;20005;-65
2021/03/10 04:32:44;;;;;;;7.43;1.90;;;25.00;99.90;;;;;;6318359;22;20002;-65
2021/03/10 04:35:12;;;;;;;5.88;1.38;;;25.30;99.90;;;;;;6322240;22;20039;-66
2021/03/10 04:37:40;;;;;;;9.45;1.83;;;25.40;99.90;;;;;;6318519;22;19996;-65
2021/03/10 04:40:10;;;;;;;10.05;2.03;;;25.20;99.90;;;;;;6319964;22;20009;-66
2021/03/10 04:42:38;;;;;;;7.13;1.92;;;25.10;99.90;;;;;;6317916;22;20026;-65
2021/03/10 04:45:07;;;;;;;10.60;2.13;;;25.20;99.90;;;;;;6319069;22;20019;-66
2021/03/10 04:47:36;;;;;;;9.82;2.47;;;25.50;99.90;;;;;;6342500;22;20014;-65
2021/03/10 04:50:05;;;;;;;10.27;2.42;;;25.20;99.90;;;;;;6318184;22;20006;-65
2021/03/10 04:52:32;;;;;;;9.10;2.00;;;25.20;99.90;;;;;;6315238;22;20032;-65
2021/03/10 04:55:00;;;;;;;9.00;2.00;;;25.00;99.90;;;;;;6316047;22;19999;-65
2021/03/10 04:57:27;;;;;;;7.47;1.55;;;25.00;99.90;;;;;;6314969;22;20483;-65
2021/03/10 04:59:54;;;;;;;11.32;2.88;;;25.10;99.90;;;;;;6316404;22;20011;-65
2021/03/10 05:02:22;;;;;;;6.28;1.75;;;24.90;99.90;;;;;;6316989;22;20004;-66
2021/03/10 05:04:49;;;;;;;13.35;2.53;;;24.40;99.90;;;;;;6321060;22;20007;-65
2021/03/10 05:07:16;;;;;;;8.35;2.38;;;24.30;99.90;;;;;;6315567;22;20015;-65
2021/03/10 05:09:44;;;;;;;14.02;2.60;;;24.60;99.90;;;;;;6315700;22;20069;-64
2021/03/10 05:12:11;;;;;;;9.55;2.10;;;24.50;99.90;;;;;;6314024;22;20068;-64
2021/03/10 05:14:39;;;;;;;9.13;2.08;;;24.50;99.90;;;;;;6313992;22;20011;-64
2021/03/10 05:17:06;;;;;;;9.70;2.08;;;24.40;99.90;;;;;;6310450;22;20076;-64
2021/03/10 05:19:33;;;;;;;9.80;1.95;;;24.50;99.90;;;;;;6312091;22;19999;-64
2021/03/10 05:22:01;;;;;;;7.63;2.10;;;24.30;99.90;;;;;;6309089;22;20006;-65
2021/03/10 05:24:28;;;;;;;9.52;1.80;;;24.50;99.90;;;;;;6309854;22;20006;-65
2021/03/10 05:26:55;;;;;;;12.80;2.55;;;24.50;99.90;;;;;;6308353;22;20003;-65
2021/03/10 05:29:23;;;;;;;8.77;2.05;;;24.30;99.90;;;;;;6310208;22;20042;-65
2021/03/10 05:31:50;;;;;;;9.15;2.05;;;24.40;99.90;;;;;;6311220;22;20003;-65
2021/03/10 05:34:17;;;;;;;9.68;2.40;;;24.50;99.90;;;;;;6311389;22;20310;-64
2021/03/10 05:36:44;;;;;;;10.82;1.98;;;24.50;99.90;;;;;;6339261;22;20007;-65
2021/03/10 05:39:13;;;;;;;11.77;2.00;;;24.10;99.90;;;;;;6310639;22;20334;-65
2021/03/10 05:41:40;;;;;;;9.63;2.08;;;24.00;99.90;;;;;;6310670;22;19995;-64
2021/03/10 05:44:08;;;;;;;11.05;2.50;;;24.00;99.90;;;;;;6311903;22;20003;-65
2021/03/10 05:46:36;;;;;;;12.48;1.92;;;24.20;99.90;;;;;;6308412;22;20003;-64
2021/03/10 05:49:04;;;;;;;9.35;1.90;;;24.40;99.90;;;;;;6307758;22;20515;-65
2021/03/10 05:51:32;;;;;;;11.13;2.40;;;24.40;99.90;;;;;;6310368;22;19999;-65
2021/03/10 05:54:00;;;;;;;9.52;1.85;;;24.20;99.90;;;;;;6310373;22;20429;-65
2021/03/10 05:56:28;;;;;;;12.23;1.95;;;24.00;99.90;;;;;;6307297;22;20007;-66
2021/03/10 05:59:00;;;;;;;7.65;1.85;;;23.90;99.90;;;;;;6311743;22;20007;-66
2021/03/10 06:01:27;;;;;;;7.70;1.63;;;23.80;99.90;;;;;;6307072;22;20004;-66
2021/03/10 06:03:59;;;;;;;9.95;2.03;;;24.00;99.90;;;;;;6309302;22;20085;-66
2021/03/10 06:06:33;;;;;;;12.27;1.75;;;23.90;99.90;;;;;;6308771;22;20006;-66
2021/03/10 06:09:13;;;;;;;8.27;1.88;;;24.00;99.90;;;;;;6308743;22;20086;-66
2021/03/10 06:12:01;;;;;;;6.57;1.55;;;24.00;99.90;;;;;;6306976;22;20002;-65
2021/03/10 06:14:30;;;;;;;10.18;1.85;;;24.00;99.90;;;;;;6310239;22;20003;-65
2021/03/10 06:17:08;;;;;;;9.43;1.70;;;23.90;99.90;;;;;;6332959;22;20023;-65
2021/03/10 06:19:46;;;;;;;10.75;2.00;;;23.80;99.90;;;;;;6306030;22;20342;-65
2021/03/10 06:22:15;;;;;;;8.88;2.03;;;23.70;99.90;;;;;;6321520;22;19999;-65
2021/03/10 06:24:44;;;;;;;9.65;2.28;;;23.60;99.90;;;;;;6319422;22;20014;-64
2021/03/10 06:27:11;;;;;;;11.23;2.13;;;23.60;99.90;;;;;;6316668;22;20326;-65
2021/03/10 06:29:39;;;;;;;5.72;1.83;;;23.40;99.90;;;;;;6316586;22;20011;-65
2021/03/10 06:32:08;;;;;;;9.85;2.00;;;23.50;99.90;;;;;;6317729;22;20000;-65
2021/03/10 06:34:52;;;;;;;11.77;2.00;;;23.40;99.90;;;;;;6340711;22;20327;-65
2021/03/10 06:37:33;;;;;;;12.88;2.30;;;23.50;99.90;;;;;;6317609;22;19995;-65
2021/03/10 06:40:13;;;;;;;8.48;1.98;;;23.40;99.90;;;;;;6314282;22;20003;-65
2021/03/10 06:42:41;;;;;;;12.18;3.08;;;23.20;99.90;;;;;;6313710;22;20045;-66
2021/03/10 06:45:09;;;;;;;9.75;2.08;;;23.20;99.90;;;;;;6310830;22;20000;-65
2021/03/10 06:47:41;;;;;;;13.57;3.15;;;23.30;99.90;;;;;;6310177;22;20061;-65
2021/03/10 06:50:14;;;;;;;11.00;2.67;;;23.20;99.90;;;;;;6310979;22;20007;-65
2021/03/10 06:52:51;;;;;;;9.77;1.70;;;23.30;99.90;;;;;;6312691;22;20025;-66
2021/03/10 06:55:19;;;;;;;9.30;2.53;;;23.20;99.90;;;;;;6311325;22;20231;-66
2021/03/10 06:57:47;;;;;;;7.93;2.00;;;23.10;99.90;;;;;;6310513;22;19999;-66
2021/03/10 07:00:23;;;;;;;8.30;1.77;;;23.10;99.90;;;;;;6310034;22;20003;-65
2021/03/10 07:02:50;;;;;;;11.13;2.60;;;23.20;99.90;;;;;;6333821;22;20007;-66
2021/03/10 07:05:18;;;;;;;6.50;2.47;;;23.10;99.90;;;;;;6309958;22;20479;-65
2021/03/10 07:07:48;;;;;;;8.77;2.38;;;23.10;99.90;;;;;;6310324;22;19995;-66
2021/03/10 07:10:15;;;;;;;12.68;3.30;;;23.00;99.90;;;;;;6311980;22;20035;-66
2021/03/10 07:12:44;;;;;;;9.75;2.00;;;23.00;99.90;;;;;;6311312;22;20000;-66
2021/03/10 07:15:11;;;;;;;10.48;2.95;;;23.00;99.90;;;;;;6310956;22;19999;-65
2021/03/10 07:17:39;;;;;;;10.95;2.33;;;23.00;99.90;;;;;;6310380;22;20003;-66
2021/03/10 07:20:07;;;;;;;9.35;2.63;;;23.10;99.90;;;;;;6313586;22;20050;-65
2021/03/10 07:22:42;;;;;;;7.32;1.90;;;23.00;99.90;;;;;;6309573;22;19999;-66
2021/03/10 07:25:21;;;;;;;7.93;2.63;;;23.10;99.90;;;;;;6309806;22;19995;-65
2021/03/10 07:28:04;;;;;;;10.65;2.10;;;23.00;99.90;;;;;;6309541;22;20022;-65
2021/03/10 07:30:36;;;;;;;7.97;1.95;;;23.00;99.90;;;;;;6310356;22;20375;-65
2021/03/10 07:33:11;;;;;;;7.85;2.42;;;22.90;99.90;;;;;;6311248;22;20055;-67
2021/03/10 07:36:02;;;;;;;9.52;2.33;;;22.90;99.90;;;;;;6311040;22;19999;-64
2021/03/10 07:38:36;;;;;;;9.32;2.33;;;22.80;99.90;;;;;;6310730;22;19995;-65
2021/03/10 07:41:06;;;;;;;10.15;2.03;;;22.80;99.90;;;;;;6333801;22;20007;-65
2021/03/10 07:43:44;;;;;;;10.75;2.22;;;22.80;99.90;;;;;;6311078;22;20010;-66
2021/03/10 07:46:32;;;;;;;7.45;2.63;;;22.80;99.90;;;;;;6309753;22;20068;-66
2021/03/10 07:49:02;;;;;;;7.93;2.25;;;22.80;99.90;;;;;;6309687;22;20011;-65
2021/03/10 07:51:30;;;;;;;8.23;3.15;;;22.70;99.90;;;;;;6322727;22;20041;-70
2021/03/10 07:53:59;;;;;;;13.55;2.42;;;22.70;99.90;;;;;;6338589;22;19999;-70
2021/03/10 07:56:32;;;;;;;10.07;2.78;;;22.60;99.90;;;;;;6337989;22;20003;-70
2021/03/10 07:59:20;;;;;;;16.05;2.58;;;22.60;99.90;;;;;;6338375;22;19999;-70
2021/03/10 08:01:48;;;;;;;8.32;2.38;;;22.60;99.90;;;;;;6336158;22;20003;-70
2021/03/10 08:04:17;;;;;;;8.13;2.72;;;22.60;99.90;;;;;;6336769;22;20055;-70
2021/03/10 08:06:48;;;;;;;8.35;3.13;;;22.60;99.90;;;;;;6337398;22;20022;-70
2021/03/10 08:09:18;;;;;;;12.73;2.75;;;22.60;99.90;;;;;;6338017;22;20037;-70
2021/03/10 08:12:02;;;;;;;10.20;3.08;;;22.50;99.90;;;;;;6337575;22;19995;-70
2021/03/10 08:14:40;;;;;;;17.33;3.50;;;22.50;99.90;;;;;;6337673;22;20425;-70
2021/03/10 08:17:08;;;;;;;16.55;3.72;;;22.50;99.90;;;;;;6337520;22;20370;-70
2021/03/10 08:19:36;;;;;;;6.90;2.33;;;22.60;99.90;;;;;;6337919;22;20002;-70
2021/03/10 08:22:04;;;;;;;8.40;2.50;;;22.50;99.90;;;;;;6336981;22;20005;-70
2021/03/10 08:24:31;;;;;;;10.20;2.15;;;22.50;99.90;;;;;;6326956;22;20031;-70
2021/03/10 08:27:00;;;;;;;7.88;2.53;;;22.50;99.90;;;;;;6305917;22;19999;-70
2021/03/10 08:29:31;;;;;;;10.13;2.45;;;22.50;99.90;;;;;;6306445;22;20008;-69
2021/03/10 08:31:58;;;;;;;10.43;2.22;;;22.50;99.90;;;;;;6306275;22;20003;-70
2021/03/10 08:34:37;;;;;;;12.73;2.67;;;22.40;99.90;;;;;;6331182;22;20034;-69
2021/03/10 08:37:08;;;;;;;12.07;2.72;;;22.50;99.90;;;;;;6306208;22;20330;-70
2021/03/10 08:39:42;;;;;;;10.38;2.67;;;22.60;99.90;;;;;;6307072;22;20000;-70
2021/03/10 08:42:11;;;;;;;9.93;2.60;;;22.50;99.90;;;;;;6305442;22;20006;-70
2021/03/10 08:44:43;;;;;;;12.43;3.25;;;22.50;99.90;;;;;;6306003;22;20074;-70
2021/03/10 08:47:21;;;;;;;10.18;2.47;;;22.50;99.90;;;;;;6306123;22;20010;-70
2021/03/10 08:50:00;;;;;;;9.07;2.92;;;22.50;99.90;;;;;;6306774;22;20061;-70
2021/03/10 08:52:28;;;;;;;11.00;2.33;;;22.50;99.90;;;;;;6306040;22;20082;-70
2021/03/10 08:55:03;;;;;;;8.10;2.55;;;22.50;99.90;;;;;;6306664;22;20003;-70
2021/03/10 08:57:32;;;;;;;11.68;2.38;;;22.50;99.90;;;;;;6305770;22;20003;-69
2021/03/10 09:00:01;;;;;;;7.47;1.95;;;22.50;99.90;;;;;;6306453;22;19999;-69
2021/03/10 09:02:29;;;;;;;10.73;2.65;;;22.50;99.90;;;;;;6305029;22;20010;-69
2021/03/10 09:04:58;;;;;;;9.60;2.28;;;22.50;99.90;;;;;;6306290;22;20007;-65
2021/03/10 09:07:26;;;;;;;8.38;2.60;;;22.50;99.90;;;;;;6330731;22;20093;-64
2021/03/10 09:09:59;;;;;;;12.65;3.30;;;22.50;99.90;;;;;;6308204;22;20030;-64
2021/03/10 09:12:29;;;;;;;8.18;2.65;;;22.50;99.90;;;;;;6310478;22;20046;-65
2021/03/10 09:14:56;;;;;;;10.95;2.67;;;22.50;99.90;;;;;;6334540;22;20011;-65
2021/03/10 09:17:36;;;;;;;10.65;2.45;;;22.50;99.90;;;;;;6310800;22;19996;-65
2021/03/10 09:20:07;;;;;;;11.35;2.40;;;22.50;99.90;;;;;;6311078;22;20006;-65
2021/03/10 09:22:46;;;;;;;7.82;1.90;;;22.50;99.90;;;;;;6335314;22;20007;-66
2021/03/10 09:25:15;;;;;;;6.72;2.25;;;22.50;99.90;;;;;;6315065;22;19995;-65
2021/03/10 09:27:43;;;;;;;8.07;2.42;;;22.50;99.90;;;;;;6312863;22;20003;-65
2021/03/10 09:30:14;;;;;;;9.05;2.40;;;22.50;99.90;;;;;;6309344;22;20071;-65
2021/03/10 09:32:42;;;;;;;8.40;2.50;;;22.50;99.90;;;;;;6309415;22;20014;-65
2021/03/10 09:35:21;;;;;;;9.13;2.50;;;22.50;99.90;;;;;;6307174;22;20005;-66
2021/03/10 09:37:57;;;;;;;9.90;3.00;;;22.60;99.90;;;;;;6309259;22;20425;-65
2021/03/10 09:40:41;;;;;;;6.95;2.92;;;22.60;99.90;;;;;;6309082;22;19995;-66
2021/03/10 09:43:16;;;;;;;10.43;2.67;;;22.60;99.90;;;;;;6309641;22;20007;-65
2021/03/10 09:45:46;;;;;;;8.73;3.40;;;22.60;99.90;;;;;;6307916;22;20003;-66
2021/03/10 09:48:18;;;;;;;9.93;2.30;;;22.60;99.90;;;;;;6308242;22;20007;-65
2021/03/10 09:50:49;;;;;;;4.40;1.80;;;22.60;99.90;;;;;;6308905;22;20007;-65
2021/03/10 09:53:30;;;;;;;9.27;2.60;;;22.60;99.90;;;;;;6307692;22;19999;-66
2021/03/10 09:56:08;;;;;;;7.63;2.60;;;22.60;99.90;;;;;;6308258;22;20078;-67
2021/03/10 09:58:57;;;;;;;10.02;2.72;;;22.60;99.90;;;;;;6312306;22;20062;-66
2021/03/10 10:01:26;;;;;;;9.45;2.45;;;22.60;99.90;;;;;;6312559;22;19999;-65
2021/03/10 10:03:55;;;;;;;7.38;2.40;;;22.50;99.90;;;;;;6311179;22;20003;-66
2021/03/10 10:06:22;;;;;;;9.88;3.08;;;22.50;99.90;;;;;;6308552;22;19999;-65
2021/03/10 10:08:51;;;;;;;7.13;2.25;;;22.60;99.90;;;;;;6309324;22;20015;-66
2021/03/10 10:11:20;;;;;;;7.65;2.13;;;22.50;99.90;;;;;;6308864;22;20007;-65
2021/03/10 10:13:49;;;;;;;8.45;2.35;;;22.50;99.90;;;;;;6310379;22;19999;-65
2021/03/10 10:16:17;;;;;;;7.75;2.53;;;22.50;99.90;;;;;;6307754;22;20087;-65
2021/03/10 10:18:46;;;;;;;7.93;2.75;;;22.50;99.90;;;;;;6332849;22;20023;-65
2021/03/10 10:21:13;;;;;;;8.73;2.30;;;22.50;99.90;;;;;;6308890;22;19995;-65
2021/03/10 10:23:41;;;;;;;8.77;2.53;;;22.60;99.90;;;;;;6308420;22;19999;-65
2021/03/10 10:26:08;;;;;;;11.77;2.25;;;22.60;99.90;;;;;;6308422;22;19999;-65
2021/03/10 10:28:36;;;;;;;8.75;2.47;;;22.60;99.90;;;;;;6309252;22;20054;-65
2021/03/10 10:31:03;;;;;;;7.75;3.05;;;22.60;99.90;;;;;;6309404;22;19999;-64
2021/03/10 10:33:30;;;;;;;10.50;2.33;;;22.60;99.90;;;;;;6331683;22;20011;-65
2021/03/10 10:35:57;;;;;;;8.25;2.45;;;22.60;99.90;;;;;;6309198;22;20013;-64
2021/03/10 10:38:25;;;;;;;8.48;2.58;;;22.60;99.90;;;;;;6309675;22;20006;-65
2021/03/10 10:40:52;;;;;;;10.77;2.88;;;22.60;99.90;;;;;;6309643;22;20334;-63
2021/03/10 10:43:19;;;;;;;8.20;3.03;;;22.60;99.90;;;;;;6309275;22;20011;-64
2021/03/10 10:45:46;;;;;;;8.68;2.13;;;22.50;99.90;;;;;;6308506;22;20004;-63
2021/03/10 10:48:14;;;;;;;11.27;3.08;;;22.50;99.90;;;;;;6308455;22;20082;-64
2021/03/10 10:50:41;;;;;;;7.22;2.10;;;22.60;99.90;;;;;;6309804;22;20042;-65
2021/03/10 10:53:08;;;;;;;6.65;2.25;;;22.50;99.90;;;;;;6308417;22;20325;-64
2021/03/10 10:55:35;;;;;;;7.55;1.95;;;22.50;99.90;;;;;;6309380;22;20038;-65
2021/03/10 10:58:03;;;;;;;6.82;2.60;;;22.50;99.90;;;;;;6309331;22;20004;-65
2021/03/10 11:00:30;;;;;;;7.68;2.53;;;22.50;99.90;;;;;;6307927;22;20056;-65
2021/03/10 11:02:57;;;;;;;8.70;2.92;;;22.50;99.90;;;;;;6309345;22;20435;-65
2021/03/10 11:05:25;;;;;;;7.70;2.15;;;22.50;99.90;;;;;;6334464;22;20031;-64
2021/03/10 11:07:52;;;;;;;7.80;2.25;;;22.50;99.90;;;;;;6312150;22;20003;-65
2021/03/10 11:10:19;;;;;;;8.35;1.90;;;22.50;99.90;;;;;;6310338;22;20006;-64
2021/03/10 11:12:46;;;;;;;10.95;2.42;;;22.50;99.90;;;;;;6308913;22;20057;-64
2021/03/10 11:15:14;;;;;;;8.65;1.85;;;22.50;99.90;;;;;;6309082;22;20007;-63
2021/03/10 11:17:41;;;;;;;8.00;2.05;;;22.40;99.90;;;;;;6310520;22;20007;-64
2021/03/10 11:20:09;;;;;;;8.48;2.25;;;22.40;99.90;;;;;;6308721;22;19996;-64
2021/03/10 11:22:37;;;;;;;10.68;2.17;;;22.40;99.90;;;;;;6306371;22;20448;-64
2021/03/10 11:25:11;;;;;;;8.30;2.08;;;22.40;99.90;;;;;;6309456;22;20000;-64
2021/03/10 11:27:39;;;;;;;9.70;2.42;;;22.40;99.90;;;;;;6307824;22;20333;-64
2021/03/10 11:30:08;;;;;;;12.73;2.65;;;22.40;99.90;;;;;;6308629;22;20061;-64
2021/03/10 11:32:36;;;;;;;7.72;1.98;;;22.40;99.90;;;;;;6310100;22;20007;-64
2021/03/10 11:35:07;;;;;;;9.25;2.00;;;22.30;99.90;;;;;;6310794;22;20003;-64
2021/03/10 11:37:35;;;;;;;5.85;1.83;;;22.30;99.90;;;;;;6309014;22;19999;-64
2021/03/10 11:40:04;;;;;;;8.00;2.42;;;22.30;99.90;;;;;;6308553;22;20395;-65
2021/03/10 11:42:31;;;;;;;7.00;2.45;;;22.30;99.90;;;;;;6308992;22;20387;-65
2021/03/10 11:44:58;;;;;;;7.05;2.10;;;22.30;99.90;;;;;;6309464;22;20006;-65
2021/03/10 11:47:26;;;;;;;12.93;2.63;;;22.30;99.90;;;;;;6309477;22;20003;-64
2021/03/10 11:49:53;;;;;;;13.02;2.45;;;22.20;99.90;;;;;;6310957;22;20011;-65
2021/03/10 11:52:20;;;;;;;5.93;1.90;;;22.20;99.90;;;;;;6308461;22;20090;-64
2021/03/10 11:54:48;;;;;;;9.40;2.28;;;22.20;99.90;;;;;;6309862;22;20128;-64
2021/03/10 11:57:15;;;;;;;7.28;2.40;;;22.20;99.90;;;;;;6309049;22;20125;-64
2021/03/10 11:59:42;;;;;;;5.93;1.88;;;22.20;99.90;;;;;;6308290;22;20085;-64
2021/03/10 12:02:10;;;;;;;10.95;2.75;;;22.20;99.90;;;;;;6309233;22;20426;-64
2021/03/10 12:04:37;;;;;;;9.95;1.80;;;22.20;99.90;;;;;;6309623;22;20031;-64
2021/03/10 12:07:04;;;;;;;9.63;2.47;;;22.20;99.90;;;;;;6308800;22;20003;-64
2021/03/10 12:09:32;;;;;;;9.90;2.50;;;22.20;99.90;;;;;;6310461;22;20003;-65
2021/03/10 12:11:59;;;;;;;6.95;2.72;;;22.20;99.90;;;;;;6309226;22;20015;-65
2021/03/10 12:14:27;;;;;;;7.40;1.65;;;22.20;99.90;;;;;;6309911;22;20007;-64
2021/03/10 12:16:54;;;;;;;8.05;1.98;;;22.20;99.90;;;;;;6308052;22;19999;-64
2021/03/10 12:19:22;;;;;;;11.75;2.47;;;22.20;99.90;;;;;;6334764;22;20026;-65
2021/03/10 12:21:49;;;;;;;9.68;2.38;;;22.20;99.90;;;;;;6309880;22;20004;-64
2021/03/10 12:24:16;;;;;;;6.63;1.88;;;22.20;99.90;;;;;;6309656;22;20078;-64
2021/03/10 12:26:44;;;;;;;8.80;2.50;;;22.20;99.90;;;;;;6311505;22;20011;-64
2021/03/10 12:29:11;;;;;;;6.75;1.40;;;22.30;99.90;;;;;;6336174;22;20011;-65
2021/03/10 12:31:39;;;;;;;10.52;2.00;;;22.30;99.90;;;;;;6309248;22;20026;-63
2021/03/10 12:34:06;;;;;;;8.52;1.45;;;22.30;99.90;;;;;;6309343;22;20007;-64
2021/03/10 12:36:33;;;;;;;10.75;2.22;;;22.30;99.90;;;;;;6308014;22;20086;-65
2021/03/10 12:39:02;;;;;;;13.23;2.45;;;22.30;99.90;;;;;;6310989;22;20003;-65
2021/03/10 12:41:29;;;;;;;7.93;2.47;;;22.30;99.90;;;;;;6309534;22;19996;-65
2021/03/10 12:43:57;;;;;;;6.78;2.03;;;22.30;99.90;;;;;;6311163;22;20042;-64
2021/03/10 12:46:24;;;;;;;9.50;2.25;;;22.30;99.90;;;;;;6310158;22;20000;-64
2021/03/10 12:48:51;;;;;;;7.95;2.13;;;22.30;99.90;;;;;;6311719;22;20008;-64
2021/03/10 12:51:18;;;;;;;8.23;1.92;;;22.30;99.90;;;;;;6312514;22;20007;-64
2021/03/10 12:53:46;;;;;;;9.85;2.15;;;22.30;99.90;;;;;;6310975;22;20007;-64
2021/03/10 12:56:13;;;;;;;8.93;2.03;;;22.30;99.90;;;;;;6310799;22;20078;-64